^^
Station Historical Data
Daily Summary for September 3, 2017 Units:  English    Metric   Both
« Previous Day
Next Day »
Daily Weekly Monthly Yearly Custom
  High: Low: Average:
Temperature: 68.7 °F 55.1 °F 60.6 °F
Dew Point: 61.8 °F 53.5 °F 58.1 °F
Humidity: 97% 75% 92%
Wind Speed: 5.0mph 0.0mph 1.3mph
Wind Gust: 13.0mph - -
Wind- - WSW
Pressure: 30.11 in 29.84 in -
Precipitation: 1.19 in    
Historical Graphs
 
 
Tabular Data for September 3, 2017
Time Temperature Dew Point Pressure Wind Wind Speed Wind Gust Humidity Rainfall Rate (Hourly) Conditions
00:00 55.2 °F 53.5 °F 30.11 in Calm   8.0 mph 94% 0.11 in -RA
00:15 55.4 °F 54.0 °F 30.11 in West 1.0 mph 3.0 mph 95% 0.02 in -RA
00:30 55.1 °F 53.7 °F 30.11 in Calm   5.0 mph 95% 0.00 in -RA
00:45 55.2 °F 53.8 °F 30.10 in Calm   4.0 mph 95% 0.01 in -RA
01:00 55.3 °F 53.9 °F 30.10 in Calm   6.0 mph 95% 0.00 in -RA
01:15 55.3 °F 53.9 °F 30.09 in Calm   3.0 mph 95% 0.02 in -RA
01:30 55.4 °F 54.0 °F 30.08 in WNW 1.0 mph 5.0 mph 95% 0.04 in -RA
01:45 55.6 °F 54.5 °F 30.07 in Calm   3.0 mph 96% 0.04 in -RA
02:00 55.9 °F 54.8 °F 30.07 in NNE 1.0 mph 7.0 mph 96% 0.00 in -RA
02:15 56.3 °F 55.2 °F 30.06 in Calm   3.0 mph 96% 0.00 in -RA
02:30 56.6 °F 55.5 °F 30.05 in NW 3.0 mph 6.0 mph 96% 0.00 in -RA
02:45 56.7 °F 55.6 °F 30.04 in WNW 1.0 mph 5.0 mph 96% 0.01 in -RA
03:00 56.8 °F 55.7 °F 30.02 in NNW 2.0 mph 5.0 mph 96% 0.00 in -RA
03:15 57.2 °F 56.1 °F 30.02 in WNW 2.0 mph 9.0 mph 96% 0.00 in -RA
03:30 57.5 °F 56.4 °F 30.02 in NNW 1.0 mph 6.0 mph 96% 0.00 in -RA
03:45 57.6 °F 56.5 °F 30.01 in WNW 1.0 mph 6.0 mph 96% 0.02 in -RA
04:00 57.6 °F 56.5 °F 30.02 in WSW 1.0 mph 7.0 mph 96% 0.13 in -RA
04:15 57.6 °F 56.5 °F 30.02 in NW 1.0 mph 5.0 mph 96% 0.12 in RA
04:30 57.6 °F 56.5 °F 30.01 in NW 2.0 mph 5.0 mph 96% 0.12 in RA
04:45 57.7 °F 56.6 °F 30.01 in Calm   4.0 mph 96% 0.04 in RA
05:00 57.8 °F 56.7 °F 30.00 in NW 1.0 mph 5.0 mph 96% 0.01 in
05:15 57.9 °F 56.8 °F 29.99 in NNW 1.0 mph 4.0 mph 96% 0.00 in -RA
05:30 58.0 °F 56.9 °F 29.98 in NW 2.0 mph 7.0 mph 96% 0.01 in -RA
06:00 57.9 °F 56.8 °F 29.98 in NNW 1.0 mph 9.0 mph 96% 0.00 in -RA
06:15 57.9 °F 56.8 °F 29.98 in WNW 1.0 mph 6.0 mph 96% 0.01 in -RA
06:30 57.8 °F 56.7 °F 29.98 in NNW 2.0 mph 8.0 mph 96% 0.00 in -RA
06:45 57.7 °F 56.6 °F 29.97 in NW 1.0 mph 8.0 mph 96% 0.00 in -RA
07:00 57.5 °F 56.4 °F 29.97 in WNW 2.0 mph 7.0 mph 96% 0.00 in -RA
07:15 57.5 °F 56.4 °F 29.96 in NNW 2.0 mph 7.0 mph 96% 0.01 in -RA
07:30 57.6 °F 56.8 °F 29.96 in West 3.0 mph 12.0 mph 97% 0.00 in -RA
07:45 57.7 °F 56.9 °F 29.95 in NNE 2.0 mph 9.0 mph 97% 0.00 in -RA
08:00 57.9 °F 57.1 °F 29.95 in West 1.0 mph 8.0 mph 97% 0.00 in -RA
08:15 58.2 °F 57.4 °F 29.94 in Calm   7.0 mph 97% 0.00 in -RA
08:30 58.4 °F 57.6 °F 29.94 in SW 1.0 mph 9.0 mph 97% 0.00 in -RA
08:45 58.6 °F 57.8 °F 29.93 in ENE 2.0 mph 13.0 mph 97% 0.00 in -RA
09:00 59.0 °F 58.1 °F 29.92 in NE 1.0 mph 6.0 mph 97% 0.02 in -RA
09:15 59.2 °F 58.3 °F 29.91 in SSE 2.0 mph 9.0 mph 97% 0.01 in -RA
09:30 59.4 °F 58.5 °F 29.91 in WNW 2.0 mph 6.0 mph 97% 0.01 in -RA
09:45 59.6 °F 58.7 °F 29.91 in NW 2.0 mph 6.0 mph 97% 0.06 in -RA
10:00 59.7 °F 58.8 °F 29.92 in Calm   4.0 mph 97% 0.06 in -RA
10:15 59.9 °F 59.0 °F 29.91 in Calm   3.0 mph 97% 0.17 in RA
10:30 60.3 °F 59.4 °F 29.91 in Calm   3.0 mph 97% 0.10 in RA
10:45 60.8 °F 59.9 °F 29.90 in Calm   3.0 mph 97% 0.03 in RA
11:00 61.3 °F 60.4 °F 29.89 in NNW 1.0 mph 5.0 mph 97% 0.01 in
11:15 61.6 °F 60.7 °F 29.89 in NW 2.0 mph 4.0 mph 97% 0.00 in -RA
11:30 62.0 °F 61.1 °F 29.89 in Calm   6.0 mph 97% 0.00 in -RA
11:45 62.0 °F 61.1 °F 29.89 in NNW 1.0 mph 3.0 mph 97% 0.01 in -RA
12:00 61.9 °F 61.0 °F 29.89 in Calm   4.0 mph 97% 0.00 in -RA
12:15 60.5 °F 59.4 °F 29.88 in Calm   8.0 mph 96% 0.04 in -RA
12:30 59.4 °F 58.3 °F 29.88 in Calm   8.0 mph 96% 0.05 in -RA
12:45 58.9 °F 57.8 °F 29.88 in North 2.0 mph 8.0 mph 96% 0.00 in -RA
13:00 58.7 °F 57.9 °F 29.88 in North 2.0 mph 8.0 mph 97% 0.01 in -RA
13:15 58.8 °F 58.0 °F 29.88 in North 1.0 mph 5.0 mph 97% 0.00 in OVC
13:30 59.3 °F 58.4 °F 29.88 in Calm   9.0 mph 97% 0.00 in OVC
13:45 59.8 °F 58.9 °F 29.88 in NW 1.0 mph 7.0 mph 97% 0.00 in OVC
14:00 59.6 °F 58.5 °F 29.88 in NNW 3.0 mph 7.0 mph 96% 0.00 in OVC
14:15 60.1 °F 59.3 °F 29.88 in NNW 1.0 mph 8.0 mph 97% 0.00 in BKN
14:30 60.1 °F 59.0 °F 29.88 in Calm   5.0 mph 96% 0.00 in BKN
14:45 60.4 °F 59.3 °F 29.88 in NNW 1.0 mph 4.0 mph 96% 0.00 in BKN
15:00 61.2 °F 60.0 °F 29.87 in NNE 1.0 mph 4.0 mph 96% 0.00 in BKN
15:15 61.8 °F 60.4 °F 29.87 in Calm   3.0 mph 95% 0.00 in BKN
15:30 62.0 °F 60.3 °F 29.86 in NW 1.0 mph 3.0 mph 94% 0.00 in BKN
15:45 62.7 °F 61.0 °F 29.84 in Calm   3.0 mph 94% 0.00 in BKN
16:00 63.7 °F 61.0 °F 29.85 in SE 1.0 mph 2.0 mph 91% 0.00 in BKN
16:15 64.0 °F 61.6 °F 29.86 in SW 1.0 mph 4.0 mph 92% 0.00 in BKN
16:30 65.0 °F 61.7 °F 29.87 in West 2.0 mph 5.0 mph 89% 0.00 in BKN
16:45 65.2 °F 61.8 °F 29.87 in Calm   4.0 mph 89% 0.00 in BKN
17:00 67.0 °F 61.7 °F 29.86 in WSW 5.0 mph 7.0 mph 83% 0.00 in BKN
17:15 67.7 °F 61.7 °F 29.86 in SSW 1.0 mph 8.0 mph 81% 0.00 in SCT
17:30 68.2 °F 61.4 °F 29.86 in SSW 1.0 mph 9.0 mph 79% 0.00 in SCT
17:45 68.3 °F 60.4 °F 29.87 in SW 5.0 mph 9.0 mph 76% 0.00 in SCT
18:00 68.6 °F 60.7 °F 29.86 in SSW 2.0 mph 6.0 mph 76% 0.00 in SCT
18:16 68.7 °F 60.5 °F 29.87 in SW 2.0 mph 6.0 mph 75% 0.00 in SCT
18:30 67.0 °F 59.9 °F 29.87 in South 2.0 mph 7.0 mph 78% 0.00 in SCT
18:45 66.3 °F 59.6 °F 29.87 in SSW 2.0 mph 7.0 mph 79% 0.00 in SCT
19:00 66.4 °F 60.0 °F 29.87 in SSW 2.0 mph 6.0 mph 80% 0.00 in SCT
19:15 66.0 °F 59.7 °F 29.88 in Calm   6.0 mph 80% 0.00 in SCT
19:30 65.4 °F 59.8 °F 29.88 in SSW 1.0 mph 7.0 mph 82% 0.00 in SCT
19:45 65.2 °F 58.9 °F 29.88 in SW 5.0 mph 10.0 mph 80% 0.00 in SCT
20:00 65.0 °F 58.7 °F 29.88 in SSW 1.0 mph 7.0 mph 80% 0.00 in SCT
20:15 64.6 °F 58.6 °F 29.89 in SW 2.0 mph 6.0 mph 81% 0.00 in SCT
20:30 64.3 °F 58.7 °F 29.89 in SSW 1.0 mph 8.0 mph 82% 0.00 in SCT
20:45 63.9 °F 58.3 °F 29.90 in SSW 3.0 mph 10.0 mph 82% 0.00 in SCT
21:00 63.7 °F 58.1 °F 29.90 in SW 1.0 mph 12.0 mph 82% 0.00 in SCT
21:15 63.5 °F 58.2 °F 29.90 in SW 2.0 mph 10.0 mph 83% 0.00 in FEW
21:30 63.5 °F 58.2 °F 29.90 in SW 3.0 mph 7.0 mph 83% 0.00 in FEW
21:45 63.4 °F 58.2 °F 29.91 in SSW 1.0 mph 8.0 mph 83% 0.00 in FEW
22:00 63.2 °F 58.3 °F 29.91 in SSW 2.0 mph 9.0 mph 84% 0.00 in FEW
22:15 62.8 °F 58.2 °F 29.91 in SSW 2.0 mph 8.0 mph 85% 0.00 in SCT
22:30 62.6 °F 58.4 °F 29.92 in SSW 3.0 mph 9.0 mph 86% 0.00 in SCT
22:45 62.6 °F 58.4 °F 29.92 in SSW 3.0 mph 7.0 mph 86% 0.00 in SCT
23:00 62.5 °F 58.3 °F 29.92 in SSW 3.0 mph 8.0 mph 86% 0.00 in SCT
23:30 61.8 °F 58.2 °F 29.92 in SSW 3.0 mph 9.0 mph 88% 0.00 in FEW
23:45 61.5 °F 57.9 °F 29.92 in Calm   6.0 mph 88% 0.00 in FEW
TarryTown NY Weather
Compliments of Weather Underground - 1.5 mb